This is the latest recevied weather packets stored in our database for station/object IK1PCD-11. If no packets are shown the sender has not sent any weather packets the latest 10 day(s).
| Time | Temp. | Humidity | Pressure | Rain* | Wind** | Luminosity | Snow |
|---|---|---|---|---|---|---|---|
| 1777755478 | 6.11° C | 69% | 1020.8 hPa | - | - | - | - |
| 1777752779 | 6.67° C | 69% | 1020.9 hPa | - | - | - | - |
| 1777751878 | 7.22° C | 73% | 1020.9 hPa | - | - | - | - |
| 1777750977 | 7.22° C | 74% | 1021 hPa | - | - | - | - |
| 1777750077 | 7.78° C | 74% | 1021 hPa | - | - | - | - |
| 1777749178 | 8.33° C | 74% | 1020.8 hPa | - | - | - | - |
| 1777748275 | 8.89° C | 72% | 1020.8 hPa | - | - | - | - |
| 1777747374 | 9.44° C | 70% | 1020.8 hPa | - | - | - | - |
| 1777746473 | 10.56° C | 67% | 1020.7 hPa | - | - | - | - |
| 1777745572 | 11.67° C | 64% | 1020.6 hPa | - | - | - | - |
| 1777744696 | 12.78° C | 57% | 1020.7 hPa | - | - | - | - |
| 1777743795 | 14.44° C | 51% | 1020.8 hPa | - | - | - | - |
| 1777742900 | 14.44° C | 53% | 1020.8 hPa | - | - | - | - |
| 1777741995 | 15.56° C | 50% | 1020.9 hPa | - | - | - | - |
| 1777741095 | 15.56° C | 50% | 1020.8 hPa | - | - | - | - |
| 1777740195 | 15.56° C | 50% | 1020.8 hPa | - | - | - | - |
| 1777737495 | 17.22° C | 47% | 1021.1 hPa | - | - | - | - |
| 1777736595 | 17.78° C | 46% | 1021.2 hPa | - | - | - | - |
| 1777735695 | 17.78° C | 46% | 1021.2 hPa | - | - | - | - |
| 1777734795 | 17.78° C | 45% | 1021.5 hPa | - | - | - | - |
| 1777733894 | 17.78° C | 47% | 1021.4 hPa | - | - | - | - |
| 1777732994 | 18.33° C | 45% | 1021.5 hPa | - | - | - | - |
| 1777732094 | 18.33° C | 45% | 1021.6 hPa | - | - | - | - |
| 1777731194 | 19.44° C | 42% | 1021.7 hPa | - | - | - | - |
| 1777730294 | 18.33° C | 45% | 1021.8 hPa | - | - | - | - |
* Rain since midnight (hover to see other rain measurements)
** Current wind speed in m/s (hover to see current wind gust speed)